Skip Navigation Links
NOAA logo - Click to go to the NOAA homepage
NOAA's National Weather Service
Alaska Aviation Weather Unit
  NWS logo - Click to go to the NWS homepage
Left Navbar Graphic     19 AKDT = 03 GMT

   
NOAA is celebrating 200 years of science, service, and stewardship. Visit the NOAA 200th celebration Web site to learn more.
USA.gov is the U.S. Government's official Web portal to all Federal, state and local government Web resources and services.
Facebook
NWS on Facebook

Important Change Regarding the AAWU Web Presence

 

Over the last several months, the AAWU has been working to navigate its webpages to a nationally supported server. Security, as well as other needs, have necessitated the change.  In the process, we have made an effort to enhance the functionality of our website, as well as some of our products. As of June 20, 2017, aawu.arh.noaa.gov will be discontinued. The new AAWU web address is weather.gov/aawu. It is now live and will run in-parallel with the old site until it is discontinued. Please send any feedback or questions regarding the new webpages to nws.ar.aawu.webauthors@noaa.gov.  Thank you for your patience during this time of transition.
AAWU Home :: Display TAF Add Bookmark
SPECI PAGM 242104Z AUTO 36013KT 10SM FEW011 OVC019 02/M01 A2962 RMK AO2
     FZRANO=

SPECI PAGM 242130Z AUTO 01012KT 10SM SCT021 02/M01 A2962 RMK AO2
     FZRANO=

SPECI PAGM 242326Z AUTO 01014KT 10SM SCT014 OVC049 02/M02 A2963 RMK AO2
     FZRANO=

METAR PAGM 242356Z AUTO 02012KT 10SM OVC049 02/M02 A2963 RMK AO2
 SLP041 60000 T00171022 10028 20011 53007 FZRANO=

METAR PAGM 250056Z AUTO 02008KT 10SM FEW046 SCT055 01/M02 A2964 RMK
 AO2 SLP043 T00111022 FZRANO=

PAGM 250151Z AUTO 01005KT 10SM BKN022 OVC050 02/M03 A2965 RMK AO2
     FZRANO=

METAR PAGM 250156Z AUTO 02005KT 10SM BKN022 OVC050 02/M02 A2965 RMK AO2
     SLP046 T00221022 FZRANO=

METAR PAGM 250256Z AUTO 23003KT 10SM BKN022 OVC026 02/M03 A2965 RMK AO2
     SLP048 T00171028 51005 FZRANO=


NOAA's National Weather Service
Alaska Aviation Weather Unit
6930 Sand Lake Road
Anchorage, AK 99502-1845
Disclaimer
Credits
Glossary
Privacy Policy
About Us
Career Opportunities
Contact AAWU Internet Services Site last modified: April, 17th 2012